sensor_id;sensor_type;location;lat;lon;timestamp;P1;durP1;ratioP1;P2;durP2;ratioP2
41512;SDS011;27244;59.940;30.280;2023-02-26T00:00:13;20.38;;;15.40;;
41512;SDS011;27244;59.940;30.280;2023-02-26T00:02:41;20.25;;;13.60;;
41512;SDS011;27244;59.940;30.280;2023-02-26T00:05:10;19.63;;;12.65;;
41512;SDS011;27244;59.940;30.280;2023-02-26T00:07:39;20.63;;;13.13;;
41512;SDS011;27244;59.940;30.280;2023-02-26T00:10:07;15.05;;;10.93;;
41512;SDS011;27244;59.940;30.280;2023-02-26T00:12:37;16.90;;;10.63;;
41512;SDS011;27244;59.940;30.280;2023-02-26T00:15:05;12.02;;;9.55;;
41512;SDS011;27244;59.940;30.280;2023-02-26T00:17:40;14.13;;;8.95;;
41512;SDS011;27244;59.940;30.280;2023-02-26T00:20:10;14.18;;;8.73;;
41512;SDS011;27244;59.940;30.280;2023-02-26T00:22:40;12.52;;;8.57;;
41512;SDS011;27244;59.940;30.280;2023-02-26T00:25:07;12.73;;;8.70;;
41512;SDS011;27244;59.940;30.280;2023-02-26T00:27:35;12.60;;;8.88;;
41512;SDS011;27244;59.940;30.280;2023-02-26T00:30:03;13.93;;;8.07;;
41512;SDS011;27244;59.940;30.280;2023-02-26T00:32:34;11.77;;;8.20;;
41512;SDS011;27244;59.940;30.280;2023-02-26T00:35:04;11.50;;;7.90;;
41512;SDS011;27244;59.940;30.280;2023-02-26T00:37:36;11.02;;;7.55;;
41512;SDS011;27244;59.940;30.280;2023-02-26T00:40:14;9.23;;;6.47;;
41512;SDS011;27244;59.940;30.280;2023-02-26T00:42:48;12.68;;;7.00;;
41512;SDS011;27244;59.940;30.280;2023-02-26T00:45:16;9.88;;;6.47;;
41512;SDS011;27244;59.940;30.280;2023-02-26T00:47:46;10.38;;;7.25;;
41512;SDS011;27244;59.940;30.280;2023-02-26T00:50:17;9.35;;;6.95;;
41512;SDS011;27244;59.940;30.280;2023-02-26T00:52:54;9.40;;;6.45;;
41512;SDS011;27244;59.940;30.280;2023-02-26T00:55:28;8.23;;;6.35;;
41512;SDS011;27244;59.940;30.280;2023-02-26T00:57:55;9.02;;;6.00;;
41512;SDS011;27244;59.940;30.280;2023-02-26T01:00:23;9.40;;;6.18;;
41512;SDS011;27244;59.940;30.280;2023-02-26T01:02:50;10.00;;;6.32;;
41512;SDS011;27244;59.940;30.280;2023-02-26T01:05:18;8.27;;;5.47;;
41512;SDS011;27244;59.940;30.280;2023-02-26T01:07:46;7.72;;;5.50;;
41512;SDS011;27244;59.940;30.280;2023-02-26T01:10:27;8.52;;;5.85;;
41512;SDS011;27244;59.940;30.280;2023-02-26T01:12:57;10.75;;;6.38;;
41512;SDS011;27244;59.940;30.280;2023-02-26T01:15:24;8.05;;;5.32;;
41512;SDS011;27244;59.940;30.280;2023-02-26T01:17:54;8.80;;;5.30;;
41512;SDS011;27244;59.940;30.280;2023-02-26T01:20:28;7.00;;;5.25;;
41512;SDS011;27244;59.940;30.280;2023-02-26T01:23:03;7.13;;;5.07;;
41512;SDS011;27244;59.940;30.280;2023-02-26T01:25:36;7.95;;;4.88;;
41512;SDS011;27244;59.940;30.280;2023-02-26T01:28:07;6.38;;;4.45;;
41512;SDS011;27244;59.940;30.280;2023-02-26T01:30:35;7.15;;;5.00;;
41512;SDS011;27244;59.940;30.280;2023-02-26T01:33:05;5.97;;;4.57;;
41512;SDS011;27244;59.940;30.280;2023-02-26T01:35:39;5.13;;;4.13;;
41512;SDS011;27244;59.940;30.280;2023-02-26T01:38:13;5.90;;;4.47;;
41512;SDS011;27244;59.940;30.280;2023-02-26T01:43:42;6.47;;;4.32;;
41512;SDS011;27244;59.940;30.280;2023-02-26T01:46:15;5.95;;;4.10;;
41512;SDS011;27244;59.940;30.280;2023-02-26T01:48:49;6.82;;;4.22;;
41512;SDS011;27244;59.940;30.280;2023-02-26T01:51:18;5.05;;;3.72;;
41512;SDS011;27244;59.940;30.280;2023-02-26T01:54:05;6.03;;;3.78;;
41512;SDS011;27244;59.940;30.280;2023-02-26T01:56:35;5.50;;;4.15;;
41512;SDS011;27244;59.940;30.280;2023-02-26T01:59:20;4.90;;;3.70;;
41512;SDS011;27244;59.940;30.280;2023-02-26T02:01:49;5.18;;;4.22;;
41512;SDS011;27244;59.940;30.280;2023-02-26T02:04:17;7.43;;;3.75;;
41512;SDS011;27244;59.940;30.280;2023-02-26T02:06:45;5.88;;;3.88;;
41512;SDS011;27244;59.940;30.280;2023-02-26T02:09:12;4.20;;;3.55;;
41512;SDS011;27244;59.940;30.280;2023-02-26T02:11:45;4.05;;;3.35;;
41512;SDS011;27244;59.940;30.280;2023-02-26T02:14:27;5.97;;;3.40;;
41512;SDS011;27244;59.940;30.280;2023-02-26T02:17:06;4.13;;;3.55;;
41512;SDS011;27244;59.940;30.280;2023-02-26T02:19:48;4.93;;;3.67;;
41512;SDS011;27244;59.940;30.280;2023-02-26T02:22:39;4.78;;;3.47;;
41512;SDS011;27244;59.940;30.280;2023-02-26T02:25:29;4.35;;;3.20;;
41512;SDS011;27244;59.940;30.280;2023-02-26T02:28:19;4.65;;;3.50;;
41512;SDS011;27244;59.940;30.280;2023-02-26T02:31:00;4.13;;;3.55;;
41512;SDS011;27244;59.940;30.280;2023-02-26T02:33:35;4.70;;;3.30;;
41512;SDS011;27244;59.940;30.280;2023-02-26T02:36:10;4.38;;;3.47;;
41512;SDS011;27244;59.940;30.280;2023-02-26T02:38:42;3.95;;;3.17;;
41512;SDS011;27244;59.940;30.280;2023-02-26T02:41:15;4.35;;;3.35;;
41512;SDS011;27244;59.940;30.280;2023-02-26T02:43:46;3.95;;;3.33;;
41512;SDS011;27244;59.940;30.280;2023-02-26T02:46:18;3.95;;;3.00;;
41512;SDS011;27244;59.940;30.280;2023-02-26T02:48:52;5.55;;;3.33;;
41512;SDS011;27244;59.940;30.280;2023-02-26T02:51:24;3.80;;;3.20;;
41512;SDS011;27244;59.940;30.280;2023-02-26T02:53:56;4.93;;;3.35;;
41512;SDS011;27244;59.940;30.280;2023-02-26T02:56:28;4.35;;;3.15;;
41512;SDS011;27244;59.940;30.280;2023-02-26T02:59:00;3.80;;;3.40;;
41512;SDS011;27244;59.940;30.280;2023-02-26T03:01:33;4.00;;;3.38;;
41512;SDS011;27244;59.940;30.280;2023-02-26T03:04:04;3.70;;;3.10;;
41512;SDS011;27244;59.940;30.280;2023-02-26T03:09:02;3.95;;;3.00;;
41512;SDS011;27244;59.940;30.280;2023-02-26T03:11:31;5.10;;;3.50;;
41512;SDS011;27244;59.940;30.280;2023-02-26T03:13:59;4.03;;;2.70;;
41512;SDS011;27244;59.940;30.280;2023-02-26T03:19:20;6.13;;;3.38;;
41512;SDS011;27244;59.940;30.280;2023-02-26T03:21:56;7.25;;;3.10;;
41512;SDS011;27244;59.940;30.280;2023-02-26T03:24:49;4.88;;;3.22;;
41512;SDS011;27244;59.940;30.280;2023-02-26T03:27:20;3.30;;;2.65;;
41512;SDS011;27244;59.940;30.280;2023-02-26T03:29:53;4.80;;;3.20;;
41512;SDS011;27244;59.940;30.280;2023-02-26T03:32:26;3.40;;;3.10;;
41512;SDS011;27244;59.940;30.280;2023-02-26T03:35:00;3.97;;;3.33;;
41512;SDS011;27244;59.940;30.280;2023-02-26T03:37:34;4.30;;;3.22;;
41512;SDS011;27244;59.940;30.280;2023-02-26T03:40:07;4.30;;;3.58;;
41512;SDS011;27244;59.940;30.280;2023-02-26T03:42:40;4.78;;;3.50;;
41512;SDS011;27244;59.940;30.280;2023-02-26T03:45:12;4.82;;;3.38;;
41512;SDS011;27244;59.940;30.280;2023-02-26T03:47:42;4.13;;;3.40;;
41512;SDS011;27244;59.940;30.280;2023-02-26T03:50:15;4.25;;;3.40;;
41512;SDS011;27244;59.940;30.280;2023-02-26T03:53:03;5.75;;;3.83;;
41512;SDS011;27244;59.940;30.280;2023-02-26T03:55:45;4.50;;;3.47;;
41512;SDS011;27244;59.940;30.280;2023-02-26T03:58:33;4.07;;;3.22;;
41512;SDS011;27244;59.940;30.280;2023-02-26T04:01:21;4.63;;;3.47;;
41512;SDS011;27244;59.940;30.280;2023-02-26T04:03:52;3.67;;;3.25;;
41512;SDS011;27244;59.940;30.280;2023-02-26T04:06:26;4.55;;;3.08;;
41512;SDS011;27244;59.940;30.280;2023-02-26T04:08:55;3.70;;;3.10;;
41512;SDS011;27244;59.940;30.280;2023-02-26T04:11:22;4.20;;;3.30;;
41512;SDS011;27244;59.940;30.280;2023-02-26T04:13:51;3.55;;;3.15;;
41512;SDS011;27244;59.940;30.280;2023-02-26T04:16:18;4.50;;;3.50;;
41512;SDS011;27244;59.940;30.280;2023-02-26T04:18:45;3.70;;;2.92;;
41512;SDS011;27244;59.940;30.280;2023-02-26T04:21:12;3.28;;;2.70;;
41512;SDS011;27244;59.940;30.280;2023-02-26T04:23:43;4.15;;;3.33;;
41512;SDS011;27244;59.940;30.280;2023-02-26T04:26:10;3.85;;;3.03;;
41512;SDS011;27244;59.940;30.280;2023-02-26T04:28:39;4.60;;;3.25;;
41512;SDS011;27244;59.940;30.280;2023-02-26T04:31:06;3.50;;;2.90;;
41512;SDS011;27244;59.940;30.280;2023-02-26T04:33:35;3.92;;;3.53;;
41512;SDS011;27244;59.940;30.280;2023-02-26T04:36:02;3.80;;;3.40;;
41512;SDS011;27244;59.940;30.280;2023-02-26T04:38:29;3.58;;;2.95;;
41512;SDS011;27244;59.940;30.280;2023-02-26T04:40:58;3.67;;;3.25;;
41512;SDS011;27244;59.940;30.280;2023-02-26T04:43:25;4.43;;;2.97;;
41512;SDS011;27244;59.940;30.280;2023-02-26T04:46:27;3.75;;;3.22;;
41512;SDS011;27244;59.940;30.280;2023-02-26T04:48:54;3.58;;;2.90;;
41512;SDS011;27244;59.940;30.280;2023-02-26T04:51:21;3.67;;;3.00;;
41512;SDS011;27244;59.940;30.280;2023-02-26T04:53:49;3.10;;;2.80;;
41512;SDS011;27244;59.940;30.280;2023-02-26T04:56:19;3.50;;;3.03;;
41512;SDS011;27244;59.940;30.280;2023-02-26T04:58:46;3.45;;;2.85;;
41512;SDS011;27244;59.940;30.280;2023-02-26T05:01:18;3.58;;;3.15;;
41512;SDS011;27244;59.940;30.280;2023-02-26T05:03:46;3.97;;;2.72;;
41512;SDS011;27244;59.940;30.280;2023-02-26T05:06:13;3.70;;;2.78;;
41512;SDS011;27244;59.940;30.280;2023-02-26T05:08:40;3.95;;;2.63;;
41512;SDS011;27244;59.940;30.280;2023-02-26T05:11:07;3.20;;;2.72;;
41512;SDS011;27244;59.940;30.280;2023-02-26T05:13:36;3.58;;;2.50;;
41512;SDS011;27244;59.940;30.280;2023-02-26T05:16:04;3.42;;;2.65;;
41512;SDS011;27244;59.940;30.280;2023-02-26T05:18:31;2.95;;;2.65;;
41512;SDS011;27244;59.940;30.280;2023-02-26T05:20:58;3.80;;;2.60;;
41512;SDS011;27244;59.940;30.280;2023-02-26T05:23:25;3.03;;;2.70;;
41512;SDS011;27244;59.940;30.280;2023-02-26T05:25:53;7.30;;;3.17;;
41512;SDS011;27244;59.940;30.280;2023-02-26T05:28:21;2.78;;;2.20;;
41512;SDS011;27244;59.940;30.280;2023-02-26T05:30:49;3.88;;;2.55;;
41512;SDS011;27244;59.940;30.280;2023-02-26T05:33:16;4.40;;;2.50;;
41512;SDS011;27244;59.940;30.280;2023-02-26T05:35:44;5.22;;;2.63;;
41512;SDS011;27244;59.940;30.280;2023-02-26T05:38:12;4.50;;;2.47;;
41512;SDS011;27244;59.940;30.280;2023-02-26T05:40:39;4.13;;;2.67;;
41512;SDS011;27244;59.940;30.280;2023-02-26T05:43:06;2.58;;;2.28;;
41512;SDS011;27244;59.940;30.280;2023-02-26T05:45:33;3.58;;;2.47;;
41512;SDS011;27244;59.940;30.280;2023-02-26T05:48:02;2.95;;;2.20;;
41512;SDS011;27244;59.940;30.280;2023-02-26T05:50:29;2.50;;;2.20;;
41512;SDS011;27244;59.940;30.280;2023-02-26T05:52:56;5.05;;;2.58;;
41512;SDS011;27244;59.940;30.280;2023-02-26T05:55:23;4.28;;;2.60;;
41512;SDS011;27244;59.940;30.280;2023-02-26T05:57:50;4.03;;;2.70;;
41512;SDS011;27244;59.940;30.280;2023-02-26T06:00:17;4.47;;;3.35;;
41512;SDS011;27244;59.940;30.280;2023-02-26T06:02:45;4.30;;;2.70;;
41512;SDS011;27244;59.940;30.280;2023-02-26T06:05:13;3.35;;;2.60;;
41512;SDS011;27244;59.940;30.280;2023-02-26T06:07:40;2.70;;;2.30;;
41512;SDS011;27244;59.940;30.280;2023-02-26T06:10:11;3.20;;;2.30;;
41512;SDS011;27244;59.940;30.280;2023-02-26T06:15:22;3.58;;;2.30;;
41512;SDS011;27244;59.940;30.280;2023-02-26T06:17:49;2.65;;;2.00;;
41512;SDS011;27244;59.940;30.280;2023-02-26T06:20:18;3.42;;;2.20;;
41512;SDS011;27244;59.940;30.280;2023-02-26T06:22:45;3.08;;;2.53;;
41512;SDS011;27244;59.940;30.280;2023-02-26T06:25:12;3.03;;;2.00;;
41512;SDS011;27244;59.940;30.280;2023-02-26T06:27:39;2.45;;;2.03;;
41512;SDS011;27244;59.940;30.280;2023-02-26T06:30:07;2.90;;;2.15;;
41512;SDS011;27244;59.940;30.280;2023-02-26T06:32:35;2.67;;;2.15;;
41512;SDS011;27244;59.940;30.280;2023-02-26T06:35:02;2.63;;;2.03;;
41512;SDS011;27244;59.940;30.280;2023-02-26T06:37:32;2.38;;;2.08;;
41512;SDS011;27244;59.940;30.280;2023-02-26T06:39:58;2.97;;;2.47;;
41512;SDS011;27244;59.940;30.280;2023-02-26T06:42:25;2.53;;;2.13;;
41512;SDS011;27244;59.940;30.280;2023-02-26T06:44:52;2.97;;;2.15;;
41512;SDS011;27244;59.940;30.280;2023-02-26T06:47:21;2.20;;;2.00;;
41512;SDS011;27244;59.940;30.280;2023-02-26T06:49:48;3.25;;;2.38;;
41512;SDS011;27244;59.940;30.280;2023-02-26T06:52:15;3.35;;;2.30;;
41512;SDS011;27244;59.940;30.280;2023-02-26T06:54:43;3.90;;;2.10;;
41512;SDS011;27244;59.940;30.280;2023-02-26T06:57:10;4.95;;;2.20;;
41512;SDS011;27244;59.940;30.280;2023-02-26T06:59:37;2.88;;;1.80;;
41512;SDS011;27244;59.940;30.280;2023-02-26T07:02:04;4.20;;;2.20;;
41512;SDS011;27244;59.940;30.280;2023-02-26T07:04:31;3.28;;;2.33;;
41512;SDS011;27244;59.940;30.280;2023-02-26T07:06:58;2.60;;;1.98;;
41512;SDS011;27244;59.940;30.280;2023-02-26T07:09:25;3.92;;;2.70;;
41512;SDS011;27244;59.940;30.280;2023-02-26T07:11:54;2.28;;;2.08;;
41512;SDS011;27244;59.940;30.280;2023-02-26T07:14:21;2.45;;;2.00;;
41512;SDS011;27244;59.940;30.280;2023-02-26T07:16:48;3.78;;;2.22;;
41512;SDS011;27244;59.940;30.280;2023-02-26T07:19:15;2.92;;;2.03;;
41512;SDS011;27244;59.940;30.280;2023-02-26T07:21:42;2.70;;;1.92;;
41512;SDS011;27244;59.940;30.280;2023-02-26T07:24:09;3.00;;;2.13;;
41512;SDS011;27244;59.940;30.280;2023-02-26T07:26:35;3.65;;;2.30;;
41512;SDS011;27244;59.940;30.280;2023-02-26T07:29:05;2.53;;;2.03;;
41512;SDS011;27244;59.940;30.280;2023-02-26T07:31:32;4.97;;;2.30;;
41512;SDS011;27244;59.940;30.280;2023-02-26T07:33:59;5.97;;;2.30;;
41512;SDS011;27244;59.940;30.280;2023-02-26T07:36:26;3.90;;;2.22;;
41512;SDS011;27244;59.940;30.280;2023-02-26T07:38:53;3.53;;;2.10;;
41512;SDS011;27244;59.940;30.280;2023-02-26T07:41:20;3.38;;;2.05;;
41512;SDS011;27244;59.940;30.280;2023-02-26T07:43:47;2.60;;;2.20;;
41512;SDS011;27244;59.940;30.280;2023-02-26T07:46:15;3.78;;;2.00;;
41512;SDS011;27244;59.940;30.280;2023-02-26T07:48:42;3.67;;;1.90;;
41512;SDS011;27244;59.940;30.280;2023-02-26T07:51:10;4.32;;;1.90;;
41512;SDS011;27244;59.940;30.280;2023-02-26T07:53:37;5.60;;;1.95;;
41512;SDS011;27244;59.940;30.280;2023-02-26T07:56:04;4.60;;;2.25;;
41512;SDS011;27244;59.940;30.280;2023-02-26T07:58:31;1.95;;;1.50;;
41512;SDS011;27244;59.940;30.280;2023-02-26T08:00:58;7.03;;;1.80;;
41512;SDS011;27244;59.940;30.280;2023-02-26T08:03:26;3.75;;;1.95;;
41512;SDS011;27244;59.940;30.280;2023-02-26T08:05:53;5.20;;;2.13;;
41512;SDS011;27244;59.940;30.280;2023-02-26T08:08:21;8.52;;;2.50;;
41512;SDS011;27244;59.940;30.280;2023-02-26T08:10:48;2.28;;;1.90;;
41512;SDS011;27244;59.940;30.280;2023-02-26T08:13:15;3.92;;;1.80;;
41512;SDS011;27244;59.940;30.280;2023-02-26T08:15:42;2.40;;;1.83;;
41512;SDS011;27244;59.940;30.280;2023-02-26T08:18:09;3.47;;;1.90;;
41512;SDS011;27244;59.940;30.280;2023-02-26T08:20:37;4.88;;;1.80;;
41512;SDS011;27244;59.940;30.280;2023-02-26T08:23:04;2.35;;;1.70;;
41512;SDS011;27244;59.940;30.280;2023-02-26T08:25:31;3.22;;;1.67;;
41512;SDS011;27244;59.940;30.280;2023-02-26T08:27:58;4.38;;;1.83;;
41512;SDS011;27244;59.940;30.280;2023-02-26T08:30:25;5.40;;;2.08;;
41512;SDS011;27244;59.940;30.280;2023-02-26T08:32:52;3.63;;;2.00;;
41512;SDS011;27244;59.940;30.280;2023-02-26T08:35:19;3.42;;;1.90;;
41512;SDS011;27244;59.940;30.280;2023-02-26T08:37:48;4.15;;;2.30;;
41512;SDS011;27244;59.940;30.280;2023-02-26T08:40:15;5.40;;;2.15;;
41512;SDS011;27244;59.940;30.280;2023-02-26T08:42:42;3.70;;;2.28;;
41512;SDS011;27244;59.940;30.280;2023-02-26T08:45:09;6.82;;;2.42;;
41512;SDS011;27244;59.940;30.280;2023-02-26T08:47:36;4.90;;;3.40;;
41512;SDS011;27244;59.940;30.280;2023-02-26T08:50:06;4.38;;;3.10;;
41512;SDS011;27244;59.940;30.280;2023-02-26T08:52:34;4.60;;;2.92;;
41512;SDS011;27244;59.940;30.280;2023-02-26T08:55:02;5.40;;;3.03;;
41512;SDS011;27244;59.940;30.280;2023-02-26T08:57:29;6.75;;;2.85;;
41512;SDS011;27244;59.940;30.280;2023-02-26T08:59:56;5.38;;;3.45;;
41512;SDS011;27244;59.940;30.280;2023-02-26T09:02:23;5.53;;;3.55;;
41512;SDS011;27244;59.940;30.280;2023-02-26T09:04:50;4.13;;;3.33;;
41512;SDS011;27244;59.940;30.280;2023-02-26T09:07:17;5.88;;;3.38;;
41512;SDS011;27244;59.940;30.280;2023-02-26T09:09:44;7.28;;;3.40;;
41512;SDS011;27244;59.940;30.280;2023-02-26T09:12:12;4.75;;;3.40;;
41512;SDS011;27244;59.940;30.280;2023-02-26T09:14:41;4.15;;;3.58;;
41512;SDS011;27244;59.940;30.280;2023-02-26T09:17:08;5.43;;;3.70;;
41512;SDS011;27244;59.940;30.280;2023-02-26T09:19:35;5.60;;;4.00;;
41512;SDS011;27244;59.940;30.280;2023-02-26T09:22:03;7.22;;;4.28;;
41512;SDS011;27244;59.940;30.280;2023-02-26T09:24:30;10.30;;;5.50;;
41512;SDS011;27244;59.940;30.280;2023-02-26T09:26:57;6.07;;;4.95;;
41512;SDS011;27244;59.940;30.280;2023-02-26T09:29:26;8.73;;;5.60;;
41512;SDS011;27244;59.940;30.280;2023-02-26T09:31:53;7.82;;;6.60;;
41512;SDS011;27244;59.940;30.280;2023-02-26T09:34:20;8.55;;;6.45;;
41512;SDS011;27244;59.940;30.280;2023-02-26T09:36:47;8.50;;;7.25;;
41512;SDS011;27244;59.940;30.280;2023-02-26T09:39:14;8.30;;;6.95;;
41512;SDS011;27244;59.940;30.280;2023-02-26T09:41:42;8.85;;;6.63;;
41512;SDS011;27244;59.940;30.280;2023-02-26T09:44:15;7.72;;;6.55;;
41512;SDS011;27244;59.940;30.280;2023-02-26T09:49:20;8.95;;;6.88;;
41512;SDS011;27244;59.940;30.280;2023-02-26T09:51:54;7.45;;;5.75;;
41512;SDS011;27244;59.940;30.280;2023-02-26T09:54:27;6.30;;;5.68;;
41512;SDS011;27244;59.940;30.280;2023-02-26T09:56:58;7.43;;;5.47;;
41512;SDS011;27244;59.940;30.280;2023-02-26T09:59:26;5.75;;;4.95;;
41512;SDS011;27244;59.940;30.280;2023-02-26T10:02:03;6.47;;;5.28;;
41512;SDS011;27244;59.940;30.280;2023-02-26T10:04:47;6.28;;;4.55;;
41512;SDS011;27244;59.940;30.280;2023-02-26T10:07:20;5.38;;;4.60;;
41512;SDS011;27244;59.940;30.280;2023-02-26T10:10:01;5.80;;;4.57;;
41512;SDS011;27244;59.940;30.280;2023-02-26T10:12:39;5.23;;;4.43;;
41512;SDS011;27244;59.940;30.280;2023-02-26T10:15:09;4.93;;;4.43;;
41512;SDS011;27244;59.940;30.280;2023-02-26T10:17:48;4.97;;;4.13;;
41512;SDS011;27244;59.940;30.280;2023-02-26T10:20:24;5.10;;;4.60;;
41512;SDS011;27244;59.940;30.280;2023-02-26T10:22:58;5.60;;;4.50;;
41512;SDS011;27244;59.940;30.280;2023-02-26T10:25:28;5.07;;;4.15;;
41512;SDS011;27244;59.940;30.280;2023-02-26T10:28:07;4.78;;;4.13;;
41512;SDS011;27244;59.940;30.280;2023-02-26T10:30:54;5.90;;;4.72;;
41512;SDS011;27244;59.940;30.280;2023-02-26T10:33:32;4.85;;;4.35;;
41512;SDS011;27244;59.940;30.280;2023-02-26T10:36:09;6.85;;;4.55;;
41512;SDS011;27244;59.940;30.280;2023-02-26T10:38:43;4.85;;;4.10;;
41512;SDS011;27244;59.940;30.280;2023-02-26T10:41:17;4.75;;;4.05;;
41512;SDS011;27244;59.940;30.280;2023-02-26T10:43:50;4.75;;;4.25;;
41512;SDS011;27244;59.940;30.280;2023-02-26T10:46:24;5.65;;;4.28;;
41512;SDS011;27244;59.940;30.280;2023-02-26T10:49:05;4.82;;;4.20;;
41512;SDS011;27244;59.940;30.280;2023-02-26T10:51:47;6.07;;;4.10;;
41512;SDS011;27244;59.940;30.280;2023-02-26T10:54:30;4.57;;;3.88;;
41512;SDS011;27244;59.940;30.280;2023-02-26T10:57:01;5.60;;;4.38;;
41512;SDS011;27244;59.940;30.280;2023-02-26T10:59:35;5.03;;;4.07;;
41512;SDS011;27244;59.940;30.280;2023-02-26T11:02:02;7.13;;;4.43;;
41512;SDS011;27244;59.940;30.280;2023-02-26T11:04:31;4.80;;;4.00;;
41512;SDS011;27244;59.940;30.280;2023-02-26T11:06:59;5.80;;;4.43;;
41512;SDS011;27244;59.940;30.280;2023-02-26T11:09:30;7.18;;;4.28;;
41512;SDS011;27244;59.940;30.280;2023-02-26T11:12:00;7.07;;;4.82;;
41512;SDS011;27244;59.940;30.280;2023-02-26T11:14:38;7.13;;;4.93;;
41512;SDS011;27244;59.940;30.280;2023-02-26T11:17:06;9.05;;;5.88;;
41512;SDS011;27244;59.940;30.280;2023-02-26T11:19:46;7.20;;;5.43;;
41512;SDS011;27244;59.940;30.280;2023-02-26T11:22:17;8.70;;;6.10;;
41512;SDS011;27244;59.940;30.280;2023-02-26T11:24:46;11.35;;;7.07;;
41512;SDS011;27244;59.940;30.280;2023-02-26T11:27:18;11.98;;;7.32;;
41512;SDS011;27244;59.940;30.280;2023-02-26T11:29:48;11.88;;;8.38;;
41512;SDS011;27244;59.940;30.280;2023-02-26T11:32:20;9.65;;;6.88;;
41512;SDS011;27244;59.940;30.280;2023-02-26T11:34:50;16.15;;;8.68;;
41512;SDS011;27244;59.940;30.280;2023-02-26T11:37:21;13.75;;;9.50;;
41512;SDS011;27244;59.940;30.280;2023-02-26T11:39:51;15.68;;;9.40;;
41512;SDS011;27244;59.940;30.280;2023-02-26T11:42:22;16.58;;;10.15;;
41512;SDS011;27244;59.940;30.280;2023-02-26T11:44:50;15.70;;;9.65;;
41512;SDS011;27244;59.940;30.280;2023-02-26T11:47:18;14.57;;;10.40;;
41512;SDS011;27244;59.940;30.280;2023-02-26T11:49:51;14.10;;;10.40;;
41512;SDS011;27244;59.940;30.280;2023-02-26T11:52:21;12.02;;;9.50;;
41512;SDS011;27244;59.940;30.280;2023-02-26T11:54:56;14.38;;;9.35;;
41512;SDS011;27244;59.940;30.280;2023-02-26T11:57:27;12.95;;;9.50;;
41512;SDS011;27244;59.940;30.280;2023-02-26T11:59:56;13.50;;;8.77;;
41512;SDS011;27244;59.940;30.280;2023-02-26T12:02:26;10.73;;;8.10;;
41512;SDS011;27244;59.940;30.280;2023-02-26T12:05:04;16.23;;;8.73;;
41512;SDS011;27244;59.940;30.280;2023-02-26T12:07:32;11.13;;;8.25;;
41512;SDS011;27244;59.940;30.280;2023-02-26T12:09:59;11.00;;;7.35;;
41512;SDS011;27244;59.940;30.280;2023-02-26T12:12:33;11.52;;;7.57;;
41512;SDS011;27244;59.940;30.280;2023-02-26T12:15:22;10.75;;;7.80;;
41512;SDS011;27244;59.940;30.280;2023-02-26T12:18:02;10.63;;;7.43;;
41512;SDS011;27244;59.940;30.280;2023-02-26T12:20:46;10.15;;;7.57;;
41512;SDS011;27244;59.940;30.280;2023-02-26T12:23:29;10.68;;;7.32;;
41512;SDS011;27244;59.940;30.280;2023-02-26T12:26:19;11.18;;;7.80;;
41512;SDS011;27244;59.940;30.280;2023-02-26T12:28:58;13.10;;;8.40;;
41512;SDS011;27244;59.940;30.280;2023-02-26T12:32:02;10.52;;;6.72;;
41512;SDS011;27244;59.940;30.280;2023-02-26T12:34:50;9.32;;;7.05;;
41512;SDS011;27244;59.940;30.280;2023-02-26T12:37:35;9.85;;;7.40;;
41512;SDS011;27244;59.940;30.280;2023-02-26T12:40:30;8.80;;;6.32;;
41512;SDS011;27244;59.940;30.280;2023-02-26T12:43:09;9.13;;;6.53;;
41512;SDS011;27244;59.940;30.280;2023-02-26T12:45:44;8.32;;;6.18;;
41512;SDS011;27244;59.940;30.280;2023-02-26T12:48:34;8.82;;;6.25;;
41512;SDS011;27244;59.940;30.280;2023-02-26T12:51:15;13.38;;;7.15;;
41512;SDS011;27244;59.940;30.280;2023-02-26T12:57:15;27.02;;;10.80;;
41512;SDS011;27244;59.940;30.280;2023-02-26T13:00:11;22.13;;;9.70;;
41512;SDS011;27244;59.940;30.280;2023-02-26T13:06:07;24.13;;;10.98;;
41512;SDS011;27244;59.940;30.280;2023-02-26T13:09:01;27.77;;;10.85;;
41512;SDS011;27244;59.940;30.280;2023-02-26T13:11:41;24.35;;;11.57;;
41512;SDS011;27244;59.940;30.280;2023-02-26T13:14:21;24.20;;;11.60;;
41512;SDS011;27244;59.940;30.280;2023-02-26T13:17:00;26.00;;;12.63;;
41512;SDS011;27244;59.940;30.280;2023-02-26T13:19:34;24.83;;;12.95;;
41512;SDS011;27244;59.940;30.280;2023-02-26T13:22:12;26.58;;;13.52;;
41512;SDS011;27244;59.940;30.280;2023-02-26T13:24:45;27.08;;;14.15;;
41512;SDS011;27244;59.940;30.280;2023-02-26T13:27:18;30.23;;;14.07;;
41512;SDS011;27244;59.940;30.280;2023-02-26T13:29:52;28.23;;;14.45;;
41512;SDS011;27244;59.940;30.280;2023-02-26T13:32:35;35.50;;;16.98;;
41512;SDS011;27244;59.940;30.280;2023-02-26T13:35:05;35.38;;;16.45;;
41512;SDS011;27244;59.940;30.280;2023-02-26T13:37:44;30.67;;;15.70;;
41512;SDS011;27244;59.940;30.280;2023-02-26T13:40:20;32.58;;;15.27;;
41512;SDS011;27244;59.940;30.280;2023-02-26T13:43:08;30.60;;;16.33;;
41512;SDS011;27244;59.940;30.280;2023-02-26T13:45:44;30.38;;;16.80;;
41512;SDS011;27244;59.940;30.280;2023-02-26T13:48:22;29.13;;;15.73;;
41512;SDS011;27244;59.940;30.280;2023-02-26T13:51:03;31.45;;;17.80;;
41512;SDS011;27244;59.940;30.280;2023-02-26T13:56:21;29.90;;;16.45;;
41512;SDS011;27244;59.940;30.280;2023-02-26T14:01:59;26.05;;;15.10;;
41512;SDS011;27244;59.940;30.280;2023-02-26T14:04:27;31.40;;;16.00;;
41512;SDS011;27244;59.940;30.280;2023-02-26T14:06:56;26.55;;;16.45;;
41512;SDS011;27244;59.940;30.280;2023-02-26T14:09:34;27.88;;;15.60;;
41512;SDS011;27244;59.940;30.280;2023-02-26T14:12:22;29.92;;;16.73;;
41512;SDS011;27244;59.940;30.280;2023-02-26T14:18:01;28.17;;;17.10;;
41512;SDS011;27244;59.940;30.280;2023-02-26T14:20:31;30.67;;;16.77;;
41512;SDS011;27244;59.940;30.280;2023-02-26T14:23:28;29.38;;;16.85;;
41512;SDS011;27244;59.940;30.280;2023-02-26T14:26:03;27.65;;;15.73;;
41512;SDS011;27244;59.940;30.280;2023-02-26T14:28:44;25.65;;;15.70;;
41512;SDS011;27244;59.940;30.280;2023-02-26T14:31:21;25.92;;;15.77;;
41512;SDS011;27244;59.940;30.280;2023-02-26T14:34:03;27.77;;;16.00;;
41512;SDS011;27244;59.940;30.280;2023-02-26T14:36:40;28.38;;;16.25;;
41512;SDS011;27244;59.940;30.280;2023-02-26T14:39:15;27.20;;;14.90;;
41512;SDS011;27244;59.940;30.280;2023-02-26T14:41:59;26.60;;;15.02;;
41512;SDS011;27244;59.940;30.280;2023-02-26T14:44:29;23.65;;;14.52;;
41512;SDS011;27244;59.940;30.280;2023-02-26T14:47:01;25.60;;;15.38;;
41512;SDS011;27244;59.940;30.280;2023-02-26T14:49:31;25.98;;;15.30;;
41512;SDS011;27244;59.940;30.280;2023-02-26T14:52:12;24.10;;;14.87;;
41512;SDS011;27244;59.940;30.280;2023-02-26T14:55:02;23.02;;;15.13;;
41512;SDS011;27244;59.940;30.280;2023-02-26T14:57:45;26.77;;;14.75;;
41512;SDS011;27244;59.940;30.280;2023-02-26T15:00:23;23.38;;;13.68;;
41512;SDS011;27244;59.940;30.280;2023-02-26T15:06:03;21.65;;;13.05;;
41512;SDS011;27244;59.940;30.280;2023-02-26T15:08:53;20.58;;;13.68;;
41512;SDS011;27244;59.940;30.280;2023-02-26T15:14:22;22.40;;;13.25;;
41512;SDS011;27244;59.940;30.280;2023-02-26T15:17:08;20.52;;;13.20;;
41512;SDS011;27244;59.940;30.280;2023-02-26T15:22:30;19.20;;;13.00;;
41512;SDS011;27244;59.940;30.280;2023-02-26T15:25:11;19.98;;;12.50;;
41512;SDS011;27244;59.940;30.280;2023-02-26T15:27:44;21.85;;;13.13;;
41512;SDS011;27244;59.940;30.280;2023-02-26T15:30:12;21.20;;;13.18;;
41512;SDS011;27244;59.940;30.280;2023-02-26T15:32:41;20.60;;;12.63;;
41512;SDS011;27244;59.940;30.280;2023-02-26T15:35:13;19.42;;;12.18;;